createdAt,value
2023-05-14T00:01:30.096Z,18.00
2023-05-14T00:05:27.544Z,17.83
2023-05-14T00:09:27.086Z,18.12
2023-05-14T00:13:24.676Z,18.04
2023-05-14T00:17:23.960Z,18.69
2023-05-14T00:21:21.457Z,18.67
2023-05-14T00:25:20.700Z,18.67
2023-05-14T00:29:18.466Z,18.65
2023-05-14T00:33:19.265Z,18.65
2023-05-14T00:37:17.276Z,18.47
2023-05-14T00:41:16.420Z,18.26
2023-05-14T00:45:13.551Z,18.17
2023-05-14T00:49:13.048Z,18.12
2023-05-14T00:53:10.848Z,18.02
2023-05-14T00:57:10.161Z,17.88
2023-05-14T01:01:07.539Z,17.81
2023-05-14T01:05:07.139Z,17.69
2023-05-14T01:09:05.605Z,17.54
2023-05-14T01:13:05.063Z,17.43
2023-05-14T01:17:02.540Z,17.26
2023-05-14T01:21:01.718Z,17.17
2023-05-14T01:24:59.835Z,17.17
2023-05-14T01:28:59.646Z,17.18
2023-05-14T01:32:56.637Z,16.97
2023-05-14T01:36:56.371Z,16.92
2023-05-14T01:40:54.283Z,16.95
2023-05-14T01:44:54.554Z,16.90
2023-05-14T01:48:51.285Z,17.15
2023-05-14T01:52:51.574Z,17.12
2023-05-14T01:56:48.111Z,17.19
2023-05-14T02:00:48.442Z,17.09
2023-05-14T02:04:45.384Z,17.04
2023-05-14T02:08:45.614Z,16.96
2023-05-14T02:12:43.061Z,16.98
2023-05-14T02:16:42.514Z,16.98
2023-05-14T02:20:39.081Z,16.95
2023-05-14T02:24:38.578Z,16.97
2023-05-14T02:28:35.190Z,16.95
2023-05-14T02:32:34.659Z,16.98
2023-05-14T02:36:32.242Z,17.13
2023-05-14T02:40:31.803Z,17.33
2023-05-14T02:44:28.574Z,17.59
2023-05-14T02:48:27.840Z,17.68
2023-05-14T02:52:23.701Z,17.75
2023-05-14T02:56:23.218Z,17.98
2023-05-14T03:00:18.836Z,18.16
2023-05-14T03:04:18.199Z,18.34
2023-05-14T03:08:16.577Z,18.55
2023-05-14T03:12:18.168Z,18.44
2023-05-14T03:16:16.731Z,18.38
2023-05-14T03:20:17.116Z,18.49
2023-05-14T03:24:15.168Z,18.56
2023-05-14T03:28:02.667Z,18.74
2023-05-14T03:31:47.509Z,18.75
2023-05-14T03:35:32.784Z,18.96
2023-05-14T03:39:17.692Z,19.15
2023-05-14T03:43:02.885Z,19.36
2023-05-14T03:46:48.280Z,19.47
2023-05-14T03:50:33.726Z,19.56
2023-05-14T03:54:24.708Z,19.57
2023-05-14T03:58:15.718Z,19.67
2023-05-14T04:02:07.055Z,19.81
2023-05-14T04:06:07.160Z,19.79
2023-05-14T04:10:06.096Z,19.97
2023-05-14T04:14:08.650Z,20.08
2023-05-14T04:18:05.799Z,20.39
2023-05-14T04:22:06.089Z,20.69
2023-05-14T04:26:03.798Z,20.82
2023-05-14T04:30:04.287Z,21.03
2023-05-14T04:33:57.667Z,21.40
2023-05-14T04:37:42.751Z,21.83
2023-05-14T04:41:27.750Z,22.36
2023-05-14T04:45:12.887Z,22.66
2023-05-14T04:48:58.153Z,23.19
2023-05-14T04:52:43.332Z,23.60
2023-05-14T04:56:28.237Z,23.95
2023-05-14T05:00:13.338Z,24.29
2023-05-14T05:03:58.202Z,24.62
2023-05-14T05:07:43.396Z,24.83
2023-05-14T05:11:28.274Z,25.10
2023-05-14T05:15:13.485Z,25.34
2023-05-14T05:18:58.735Z,25.42
2023-05-14T05:22:43.906Z,25.45
2023-05-14T05:26:34.691Z,25.66
2023-05-14T05:30:32.861Z,25.48
2023-05-14T05:34:34.287Z,25.34
2023-05-14T05:38:32.863Z,25.46
2023-05-14T05:42:34.414Z,25.52
2023-05-14T05:46:32.914Z,25.43
2023-05-14T05:50:34.464Z,25.45
2023-05-14T05:54:32.895Z,25.62
2023-05-14T05:58:34.256Z,25.03
2023-05-14T06:02:33.041Z,25.19
2023-05-14T06:06:34.287Z,25.11
2023-05-14T06:10:35.342Z,25.46
2023-05-14T06:14:36.428Z,26.27
2023-05-14T06:18:34.063Z,26.55
2023-05-14T06:22:35.405Z,26.63
2023-05-14T06:26:33.902Z,26.42
2023-05-14T06:30:35.361Z,27.15
2023-05-14T06:34:33.260Z,27.68
2023-05-14T06:38:34.426Z,28.27
2023-05-14T06:42:33.056Z,28.91
2023-05-14T06:46:34.414Z,29.07
2023-05-14T06:50:33.111Z,29.20
2023-05-14T06:54:34.441Z,29.37
2023-05-14T06:58:33.064Z,29.64
2023-05-14T07:02:34.565Z,29.84
2023-05-14T07:06:39.232Z,30.18
2023-05-14T07:10:27.796Z,30.47
2023-05-14T07:14:16.161Z,30.78
2023-05-14T07:18:01.368Z,30.85
2023-05-14T07:21:46.564Z,31.07
2023-05-14T07:25:32.592Z,31.25
2023-05-14T07:29:17.562Z,31.42
2023-05-14T07:33:02.686Z,31.64
2023-05-14T07:36:54.764Z,32.09
2023-05-14T07:40:53.864Z,32.19
2023-05-14T07:44:49.134Z,32.07
2023-05-14T07:48:48.307Z,31.97
2023-05-14T07:52:44.681Z,31.90
2023-05-14T07:56:44.075Z,32.03
2023-05-14T08:00:39.387Z,32.31
2023-05-14T08:04:38.701Z,32.46
2023-05-14T08:08:23.931Z,31.96
2023-05-14T08:12:08.925Z,31.61
2023-05-14T08:15:54.109Z,31.59
2023-05-14T08:19:39.022Z,31.67
2023-05-14T08:23:23.893Z,31.62
2023-05-14T08:27:08.936Z,31.69
2023-05-14T08:30:54.650Z,31.78
2023-05-14T08:34:39.708Z,31.86
2023-05-14T08:38:30.578Z,31.87
2023-05-14T08:42:22.473Z,32.03
2023-05-14T08:46:13.624Z,32.16
2023-05-14T08:50:12.904Z,32.17
2023-05-14T08:54:08.352Z,33.10
2023-05-14T08:58:07.373Z,33.26
2023-05-14T09:02:02.393Z,33.19
2023-05-14T09:06:01.750Z,33.26
2023-05-14T09:09:57.478Z,33.64
2023-05-14T09:13:57.147Z,33.77
2023-05-14T09:17:42.254Z,33.88
2023-05-14T09:21:27.443Z,33.73
2023-05-14T09:25:12.521Z,33.56
2023-05-14T09:29:04.153Z,33.55
2023-05-14T09:32:57.264Z,33.67
2023-05-14T09:36:56.421Z,33.58
2023-05-14T09:40:51.289Z,33.51
2023-05-14T09:44:50.208Z,33.42
2023-05-14T09:48:45.554Z,33.52
2023-05-14T09:52:45.087Z,33.54
2023-05-14T09:56:40.802Z,33.54
2023-05-14T10:00:39.846Z,33.56
2023-05-14T10:04:35.696Z,33.51
2023-05-14T10:08:35.212Z,33.59
2023-05-14T10:12:30.858Z,33.60
2023-05-14T10:16:30.410Z,33.25
2023-05-14T10:20:25.930Z,33.41
2023-05-14T10:24:25.534Z,33.82
2023-05-14T10:28:20.531Z,34.05
2023-05-14T10:32:19.615Z,34.12
2023-05-14T10:36:14.500Z,34.26
2023-05-14T10:40:13.366Z,34.69
2023-05-14T10:44:08.419Z,34.84
2023-05-14T10:48:07.599Z,34.80
2023-05-14T10:52:03.601Z,35.03
2023-05-14T10:56:03.052Z,35.24
2023-05-14T10:59:58.596Z,35.38
2023-05-14T11:03:58.242Z,35.33
2023-05-14T11:07:56.440Z,35.29
2023-05-14T11:11:58.072Z,35.54
2023-05-14T11:15:56.440Z,35.17
2023-05-14T11:19:48.854Z,34.28
2023-05-14T11:23:35.513Z,33.78
2023-05-14T11:27:20.569Z,33.70
2023-05-14T11:31:05.751Z,33.30
2023-05-14T11:34:51.003Z,32.64
2023-05-14T11:38:36.052Z,31.08
2023-05-14T11:42:27.652Z,31.14
2023-05-14T11:46:31.188Z,30.81
2023-05-14T11:50:30.988Z,30.47
2023-05-14T11:54:28.891Z,30.17
2023-05-14T11:58:29.024Z,29.91
2023-05-14T12:02:26.884Z,29.66
2023-05-14T12:06:27.057Z,29.53
2023-05-14T12:10:25.768Z,29.66
2023-05-14T12:14:24.330Z,29.81
2023-05-14T12:18:22.996Z,30.08
2023-05-14T12:22:09.449Z,30.32
2023-05-14T12:25:54.252Z,30.55
2023-05-14T12:29:45.180Z,30.67
2023-05-14T12:33:38.335Z,30.76
2023-05-14T12:37:10.520Z,30.82
2023-05-14T12:41:01.812Z,30.93
2023-05-14T12:44:52.733Z,31.10
2023-05-14T12:48:53.357Z,31.16
2023-05-14T12:52:50.669Z,31.27
2023-05-14T12:56:50.097Z,31.27
2023-05-14T13:00:47.892Z,31.38
2023-05-14T13:04:48.257Z,31.45
2023-05-14T13:08:45.799Z,31.64
2023-05-14T13:12:45.093Z,31.79
2023-05-14T13:16:41.962Z,32.02
2023-05-14T13:20:27.319Z,32.05
2023-05-14T13:24:12.247Z,32.06
2023-05-14T13:27:57.157Z,32.19
2023-05-14T13:31:42.246Z,32.34
2023-05-14T13:35:27.640Z,32.22
2023-05-14T13:39:19.650Z,32.21
2023-05-14T13:43:18.761Z,32.23
2023-05-14T13:47:15.848Z,32.32
2023-05-14T13:51:15.158Z,32.68
2023-05-14T13:55:13.337Z,33.09
2023-05-14T13:59:13.313Z,33.61
2023-05-14T14:03:10.788Z,33.97
2023-05-14T14:07:10.313Z,34.47
2023-05-14T14:11:07.942Z,35.44
2023-05-14T14:15:07.352Z,36.44
2023-05-14T14:19:05.015Z,36.84
2023-05-14T14:23:05.494Z,36.98
2023-05-14T14:27:02.872Z,36.87
2023-05-14T14:31:02.312Z,36.93
2023-05-14T14:35:00.058Z,36.41
2023-05-14T14:39:00.337Z,35.73
2023-05-14T14:42:57.901Z,35.18
2023-05-14T14:46:58.275Z,34.86
2023-05-14T14:50:56.209Z,34.50
2023-05-14T14:54:56.458Z,34.01
2023-05-14T14:58:53.761Z,33.45
2023-05-14T15:02:53.550Z,33.08
2023-05-14T15:06:57.846Z,32.85
2023-05-14T15:10:59.615Z,32.65
2023-05-14T15:14:56.989Z,32.52
2023-05-14T15:18:57.873Z,32.23
2023-05-14T15:22:53.046Z,31.87
2023-05-14T15:26:52.750Z,31.55
2023-05-14T15:30:38.615Z,31.26
2023-05-14T15:34:23.584Z,31.17
2023-05-14T15:38:08.652Z,30.89
2023-05-14T15:41:53.593Z,30.78
2023-05-14T15:45:38.743Z,30.64
2023-05-14T15:49:23.709Z,30.61
2023-05-14T15:53:08.495Z,30.49
2023-05-14T15:56:59.929Z,30.35
2023-05-14T16:00:57.146Z,30.25
2023-05-14T16:04:56.648Z,30.17
2023-05-14T16:08:52.012Z,30.18
2023-05-14T16:12:50.931Z,30.10
2023-05-14T16:16:46.020Z,30.00
2023-05-14T16:20:45.940Z,29.93
2023-05-14T16:24:41.181Z,29.85
2023-05-14T16:28:39.997Z,29.66
2023-05-14T16:32:25.050Z,29.47
2023-05-14T16:36:10.299Z,29.25
2023-05-14T16:39:55.517Z,29.14
2023-05-14T16:43:40.347Z,28.99
2023-05-14T16:47:25.791Z,28.88
2023-05-14T16:51:10.843Z,28.86
2023-05-14T16:54:55.773Z,28.79
2023-05-14T16:58:46.869Z,28.74
2023-05-14T17:02:39.799Z,28.36
2023-05-14T17:06:42.026Z,28.15
2023-05-14T17:10:37.062Z,27.81
2023-05-14T17:14:36.319Z,27.67
2023-05-14T17:18:32.518Z,27.43
2023-05-14T17:22:31.717Z,27.04
2023-05-14T17:26:27.387Z,26.82
2023-05-14T17:30:26.780Z,26.54
2023-05-14T17:34:22.540Z,26.20
2023-05-14T17:38:21.663Z,25.96
2023-05-14T17:42:17.226Z,25.75
2023-05-14T17:46:16.721Z,25.37
2023-05-14T17:50:12.173Z,25.26
2023-05-14T17:54:11.214Z,24.94
2023-05-14T17:58:06.245Z,24.55
2023-05-14T18:02:06.054Z,24.31
2023-05-14T18:06:01.538Z,24.15
2023-05-14T18:10:00.924Z,23.99
2023-05-14T18:13:56.196Z,23.71
2023-05-14T18:17:55.437Z,23.38
2023-05-14T18:21:51.426Z,23.13
2023-05-14T18:25:51.070Z,22.91
2023-05-14T18:29:46.281Z,22.69
2023-05-14T18:33:46.061Z,22.53
2023-05-14T18:37:41.685Z,22.43
2023-05-14T18:41:40.956Z,22.19
2023-05-14T18:45:36.498Z,22.12
2023-05-14T18:49:35.554Z,21.95
2023-05-14T18:53:31.546Z,21.77
2023-05-14T18:57:30.864Z,21.31
2023-05-14T19:01:26.335Z,21.22
2023-05-14T19:05:30.277Z,21.16
2023-05-14T19:09:28.121Z,20.95
2023-05-14T19:13:29.827Z,20.85
2023-05-14T19:17:28.353Z,20.79
2023-05-14T19:21:26.272Z,20.61
2023-05-14T19:25:28.509Z,20.30
2023-05-14T19:29:27.210Z,20.12
2023-05-14T19:33:28.802Z,20.05
2023-05-14T19:37:27.308Z,19.92
2023-05-14T19:41:28.738Z,19.77
2023-05-14T19:45:27.381Z,19.66
2023-05-14T19:49:28.956Z,19.56
2023-05-14T19:53:27.341Z,19.47
2023-05-14T19:57:28.848Z,19.37
2023-05-14T20:01:27.368Z,19.25
2023-05-14T20:05:28.839Z,19.13
2023-05-14T20:09:27.587Z,19.01
2023-05-14T20:13:28.868Z,18.96
2023-05-14T20:17:27.277Z,18.77
2023-05-14T20:21:28.809Z,18.80
2023-05-14T20:25:28.583Z,18.84
2023-05-14T20:29:30.371Z,18.66
2023-05-14T20:33:28.567Z,18.46
2023-05-14T20:37:29.712Z,18.40
2023-05-14T20:41:28.516Z,18.35
2023-05-14T20:45:31.771Z,18.14
2023-05-14T20:49:30.554Z,18.03
2023-05-14T20:53:31.890Z,18.02
2023-05-14T20:57:29.159Z,17.87
2023-05-14T21:01:29.562Z,17.71
2023-05-14T21:05:26.498Z,17.73
2023-05-14T21:09:26.176Z,17.58
2023-05-14T21:13:18.274Z,17.48
2023-05-14T21:17:19.665Z,17.44
2023-05-14T21:21:14.836Z,17.22
2023-05-14T21:25:13.498Z,17.21
2023-05-14T21:29:08.254Z,17.26
2023-05-14T21:33:06.950Z,17.26
2023-05-14T21:37:03.088Z,17.14
2023-05-14T21:40:59.998Z,17.03
2023-05-14T21:44:59.301Z,17.01
2023-05-14T21:48:58.842Z,16.92
2023-05-14T21:52:54.691Z,16.82
2023-05-14T21:56:53.728Z,16.71
2023-05-14T22:00:49.839Z,16.71
2023-05-14T22:04:49.524Z,16.65
2023-05-14T22:08:42.641Z,16.46
2023-05-14T22:12:45.832Z,16.38
2023-05-14T22:16:41.698Z,16.38
2023-05-14T22:20:41.453Z,16.29
2023-05-14T22:24:36.730Z,16.27
2023-05-14T22:28:35.972Z,16.21
2023-05-14T22:32:31.827Z,16.24
2023-05-14T22:36:28.885Z,16.26
2023-05-14T22:40:28.554Z,16.08
2023-05-14T22:44:29.789Z,15.98
2023-05-14T22:48:26.032Z,15.90
2023-05-14T22:52:25.540Z,15.88
2023-05-14T22:56:21.008Z,15.84
2023-05-14T23:00:18.415Z,15.70
2023-05-14T23:04:11.852Z,15.79
2023-05-14T23:08:10.468Z,15.62
2023-05-14T23:12:12.227Z,15.58
2023-05-14T23:16:10.711Z,15.50
2023-05-14T23:20:12.222Z,15.44
2023-05-14T23:24:10.507Z,15.40
2023-05-14T23:28:12.193Z,15.42
2023-05-14T23:32:10.609Z,15.39
2023-05-14T23:36:12.329Z,15.31
2023-05-14T23:40:10.667Z,15.23
2023-05-14T23:44:12.090Z,15.08
2023-05-14T23:48:10.704Z,15.04
2023-05-14T23:52:12.321Z,15.05
2023-05-14T23:56:10.737Z,15.02
